Terminal Aerodrome Forecast
Issued by NWS Burlington, VT

Home | Current Version | Previous Version | Text Only | Print | Product List | Glossary On
Versions: 1 2 3 4 5 6 7 8 9 10 11 12 13 14 15
000
FTUS41 KBTV 031126
TAFBTV
TAF
KBTV 031126Z 0312/0412 00000KT P6SM SKC
     FM031400 17008KT P6SM FEW060 SCT110
     FM032100 18010G20KT 4SM -SHSN BR SCT025 OVC040
     FM040000 17011G22KT 2SM -SN BR BKN015 OVC025
     FM040500 19014G28KT 4SM -SHSN BR SCT010 OVC015=

USA.gov is the U.S. government's official web portal to all federal, state and local government web resources and services.